Time;durP1;ratioP1;P1;durP2;ratioP2;P2;SDS_P1;SDS_P2;PMS_P1;PMS_P2;Temp;Humidity;BMP_temperature;BMP_pressure;BME280_temperature;BME280_humidity;BME280_pressure;Samples;Min_cycle;Max_cycle;Signal;HPM_P1;HPM_P2
2022/10/27 00:01:17;;;;;;;;;;;;;;;14.86;99.94;102085.50;4964433;28;19920;-74
2022/10/27 00:03:42;;;;;;;;;;;;;;;14.85;99.68;102082.00;4998540;28;19910;-74
2022/10/27 00:06:08;;;;;;;;;;;;;;;14.84;99.70;102085.56;4998264;28;19922;-74
2022/10/27 00:08:34;;;;;;;;;;;;;;;14.84;99.43;102082.06;4980828;28;19906;-74
2022/10/27 00:11:00;;;;;;;;;;;;;;;14.84;99.68;102089.97;4980716;28;20139;-74
2022/10/27 00:13:26;;;;;;;;;;;;;;;14.83;99.47;102091.75;4996205;28;20204;-74
2022/10/27 00:15:55;;;;;;;;;;;;;;;14.82;99.55;102089.19;4998204;28;20292;-74
2022/10/27 00:18:20;;;;;;;;;;;;;;;14.82;99.75;102089.19;4996341;28;20266;-74
2022/10/27 00:20:55;;;;;;;;;;;;;;;14.81;99.58;102096.25;4980781;28;19953;-74
2022/10/27 00:23:20;;;;;;;;;;;;;;;14.80;99.46;102091.88;4998255;28;20165;-73
2022/10/27 00:25:50;;;;;;;;;;;;;;;14.78;99.30;102089.28;4980427;28;20078;-74
2022/10/27 00:28:16;;;;;;;;;;;;;;;14.79;99.38;102090.16;4997648;28;19917;-74
2022/10/27 00:30:41;;;;;;;;;;;;;;;14.77;99.46;102097.25;4997873;28;20235;-74
2022/10/27 00:33:06;;;;;;;;;;;;;;;14.76;99.44;102099.03;4998133;28;19936;-74
2022/10/27 00:35:34;;;;;;;;;;;;;;;14.75;99.59;102096.44;5013041;28;20086;-74
2022/10/27 00:38:00;;;;;;;;;;;;;;;14.75;99.39;102099.09;4998464;28;19905;-74
2022/10/27 00:40:25;;;;;;;;;;;;;;;14.74;99.27;102100.03;4980245;28;19956;-74
2022/10/27 00:42:50;;;;;;;;;;;;;;;14.73;99.08;102103.56;4996926;28;19921;-74
2022/10/27 00:45:16;;;;;;;;;;;;;;;14.72;99.20;102105.34;4997673;28;19918;-74
2022/10/27 00:47:41;;;;;;;;;;;;;;;14.73;99.28;102111.47;4998212;28;19913;-74
2022/10/27 00:50:06;;;;;;;;;;;;;;;14.71;99.26;102118.59;5013053;28;20000;-74
2022/10/27 00:52:35;;;;;;;;;;;;;;;14.71;99.04;102118.59;4996319;28;19906;-74
2022/10/27 00:55:03;;;;;;;;;;;;;;;14.69;99.42;102105.47;4998111;28;20119;-74
2022/10/27 00:57:30;;;;;;;;;;;;;;;14.69;99.16;102113.38;4997604;28;19928;-74
2022/10/27 00:59:56;;;;;;;;;;;;;;;14.68;99.44;102108.16;4980491;28;19960;-74
2022/10/27 01:02:21;;;;;;;;;;;;;;;14.67;99.19;102107.31;5011838;28;19913;-74
2022/10/27 01:04:50;;;;;;;;;;;;;;;14.66;99.25;102110.88;4994335;28;19930;-74
2022/10/27 01:07:17;;;;;;;;;;;;;;;14.66;99.39;102110.00;4997044;28;19921;-74
2022/10/27 01:09:42;;;;;;;;;;;;;;;14.66;99.35;102112.63;4997416;28;19924;-74
2022/10/27 01:12:08;;;;;;;;;;;;;;;14.65;99.18;102110.91;4979906;28;19922;-74
2022/10/27 01:14:33;;;;;;;;;;;;;;;14.63;99.13;102105.69;4999956;28;20208;-74
2022/10/27 01:17:21;;;;;;;;;;;;;;;14.64;99.11;102110.03;4984182;28;20168;-74
2022/10/27 01:20:04;;;;;;;;;;;;;;;14.63;98.84;102112.75;4987427;28;20402;-74
2022/10/27 01:22:33;;;;;;;;;;;;;;;14.62;98.83;102111.03;5001241;28;19910;-74
2022/10/27 01:25:09;;;;;;;;;;;;;;;14.59;98.75;102110.22;5001060;28;19916;-74
2022/10/27 01:27:42;;;;;;;;;;;;;;;14.59;99.11;102112.00;4999036;28;20242;-74
2022/10/27 01:30:27;;;;;;;;;;;;;;;14.58;99.11;102110.28;5001203;28;19922;-74
2022/10/27 01:33:05;;;;;;;;;;;;;;;14.57;98.96;102106.78;4984006;28;20260;-74
2022/10/27 01:35:45;;;;;;;;;;;;;;;14.56;98.96;102110.31;4983923;28;19912;-74
2022/10/27 01:38:17;;;;;;;;;;;;;;;14.55;99.04;102107.72;5001342;28;20101;-74
2022/10/27 01:41:08;;;;;;;;;;;;;;;14.54;99.08;102108.66;5001231;28;20205;-74
2022/10/27 01:43:34;;;;;;;;;;;;;;;14.53;98.87;102109.56;4970581;28;20056;-74
2022/10/27 01:46:01;;;;;;;;;;;;;;;14.52;99.00;102097.31;5001431;28;19921;-74
2022/10/27 01:48:27;;;;;;;;;;;;;;;14.51;98.71;102101.69;5000500;28;19949;-74
2022/10/27 01:50:52;;;;;;;;;;;;;;;14.50;98.88;102100.00;5000787;28;19929;-74
2022/10/27 01:53:18;;;;;;;;;;;;;;;14.50;98.87;102099.16;4999133;28;20390;-74
2022/10/27 01:55:46;;;;;;;;;;;;;;;14.49;98.84;102095.63;4982826;28;19918;-74
2022/10/27 01:58:17;;;;;;;;;;;;;;;14.47;99.05;102094.81;4998882;28;19916;-74
2022/10/27 02:03:55;;;;;;;;;;;;;;;14.46;98.79;102086.97;4997484;28;19948;-74
2022/10/27 02:06:38;;;;;;;;;;;;;;;14.46;98.84;102090.50;5002285;28;19918;-73
2022/10/27 02:09:16;;;;;;;;;;;;;;;14.45;98.77;102082.63;4999623;28;19949;-73
2022/10/27 02:11:42;;;;;;;;;;;;;;;14.44;98.88;102078.28;4997632;28;20109;-73
2022/10/27 02:14:09;;;;;;;;;;;;;;;14.44;98.84;102080.91;4999617;28;20259;-73
2022/10/27 02:16:37;;;;;;;;;;;;;;;14.42;98.85;102083.59;5000323;28;19913;-73
2022/10/27 02:19:16;;;;;;;;;;;;;;;14.41;98.79;102081.88;5000280;28;19952;-74
2022/10/27 02:21:43;;;;;;;;;;;;;;;14.40;98.91;102083.66;4999350;28;19917;-73
2022/10/27 02:24:09;;;;;;;;;;;;;;;14.40;99.02;102078.38;4999064;28;19953;-73
2022/10/27 02:26:53;;;;;;;;;;;;;;;14.40;98.85;102077.53;4998466;28;20000;-73
2022/10/27 02:29:29;;;;;;;;;;;;;;;14.39;98.85;102075.81;4999222;28;19984;-73
2022/10/27 02:31:56;;;;;;;;;;;;;;;14.38;98.98;102074.94;4998179;28;19961;-73
2022/10/27 02:34:23;;;;;;;;;;;;;;;14.37;99.00;102070.59;4998607;28;19905;-72
2022/10/27 02:36:49;;;;;;;;;;;;;;;14.37;98.89;102067.97;4999372;28;20074;-72
2022/10/27 02:39:14;;;;;;;;;;;;;;;14.37;98.64;102067.09;4998684;28;19952;-73
2022/10/27 02:41:40;;;;;;;;;;;;;;;14.36;98.80;102057.47;4981763;28;19918;-73
2022/10/27 02:44:05;;;;;;;;;;;;;;;14.36;98.54;102058.31;4981087;28;19917;-73
2022/10/27 02:46:30;;;;;;;;;;;;;;;14.34;98.81;102052.25;4987425;28;19997;-73
2022/10/27 02:48:55;;;;;;;;;;;;;;;14.34;98.93;102056.69;5012007;28;20228;-72
2022/10/27 02:51:21;;;;;;;;;;;;;;;14.34;98.63;102057.53;5009042;28;20197;-73
2022/10/27 02:53:46;;;;;;;;;;;;;;;14.34;98.88;102059.31;4999949;28;20255;-73
2022/10/27 02:56:11;;;;;;;;;;;;;;;14.32;98.81;102059.38;4998163;28;19922;-72
2022/10/27 02:58:37;;;;;;;;;;;;;;;14.31;98.85;102054.16;4981380;28;19943;-73
2022/10/27 03:01:02;;;;;;;;;;;;;;;14.31;98.84;102052.38;4999377;28;19945;-73
2022/10/27 03:03:27;;;;;;;;;;;;;;;14.30;98.84;102053.28;4981750;28;20217;-73
2022/10/27 03:05:52;;;;;;;;;;;;;;;14.31;98.70;102054.16;4999835;28;19953;-73
2022/10/27 03:08:18;;;;;;;;;;;;;;;14.29;98.87;102059.47;4998938;28;19922;-73
2022/10/27 03:10:43;;;;;;;;;;;;;;;14.30;98.82;102055.94;4999398;28;19977;-72
2022/10/27 03:13:09;;;;;;;;;;;;;;;14.29;98.83;102050.72;4982286;28;19953;-73
2022/10/27 03:15:34;;;;;;;;;;;;;;;14.28;98.80;102051.63;4981281;28;19968;-73
2022/10/27 03:17:59;;;;;;;;;;;;;;;14.27;98.68;102053.41;4982086;28;19928;-73
2022/10/27 03:20:24;;;;;;;;;;;;;;;14.27;98.85;102063.94;4981178;28;19921;-73
2022/10/27 03:22:50;;;;;;;;;;;;;;;14.27;98.99;102052.56;4998253;28;19925;-72
2022/10/27 03:25:15;;;;;;;;;;;;;;;14.26;98.72;102054.34;4980741;28;19914;-72
2022/10/27 03:27:41;;;;;;;;;;;;;;;14.25;98.78;102046.47;4999247;28;19918;-73
2022/10/27 03:30:07;;;;;;;;;;;;;;;14.25;98.95;102049.97;4998771;28;19922;-73
2022/10/27 03:32:33;;;;;;;;;;;;;;;14.24;98.61;102042.97;4981096;28;19909;-72
2022/10/27 03:34:58;;;;;;;;;;;;;;;14.24;98.79;102048.22;4998854;28;19964;-72
2022/10/27 03:37:23;;;;;;;;;;;;;;;14.23;98.54;102054.44;4998571;28;19944;-73
2022/10/27 03:39:48;;;;;;;;;;;;;;;14.23;98.93;102050.94;4996897;28;19971;-73
2022/10/27 03:42:14;;;;;;;;;;;;;;;14.23;98.87;102053.59;4980985;28;19965;-73
2022/10/27 03:44:39;;;;;;;;;;;;;;;14.22;98.65;102063.25;4998869;28;19945;-73
2022/10/27 03:47:04;;;;;;;;;;;;;;;14.21;98.73;102070.28;4999431;28;19929;-72
2022/10/27 03:49:29;;;;;;;;;;;;;;;14.20;98.49;102065.94;4981177;28;20264;-72
2022/10/27 03:51:55;;;;;;;;;;;;;;;14.20;98.67;102071.19;4999036;28;20224;-73
2022/10/27 03:54:20;;;;;;;;;;;;;;;14.20;98.81;102075.63;4998293;28;19922;-72
2022/10/27 03:56:45;;;;;;;;;;;;;;;14.20;98.83;102075.63;4998812;28;19929;-73
2022/10/27 03:59:10;;;;;;;;;;;;;;;14.18;98.48;102077.44;4981126;28;20228;-73
2022/10/27 04:01:36;;;;;;;;;;;;;;;14.18;98.50;102075.66;4980790;28;20152;-73
2022/10/27 04:04:03;;;;;;;;;;;;;;;14.18;98.86;102072.19;4981099;28;19910;-73
2022/10/27 04:06:28;;;;;;;;;;;;;;;14.17;98.70;102070.44;4998269;28;19910;-73
2022/10/27 04:08:54;;;;;;;;;;;;;;;14.16;98.72;102080.13;4998608;28;19944;-73
2022/10/27 04:11:19;;;;;;;;;;;;;;;14.16;98.60;102079.28;4979587;28;20125;-72
2022/10/27 04:13:45;;;;;;;;;;;;;;;14.15;98.75;102080.19;4998864;28;20113;-73
2022/10/27 04:16:10;;;;;;;;;;;;;;;14.15;98.71;102082.81;4998204;28;19944;-73
2022/10/27 04:18:36;;;;;;;;;;;;;;;14.14;98.94;102075.84;4980489;28;19936;-73
2022/10/27 04:21:02;;;;;;;;;;;;;;;14.13;98.80;102077.59;4964863;28;20013;-72
2022/10/27 04:23:27;;;;;;;;;;;;;;;14.14;98.74;102083.75;4997496;28;20184;-73
2022/10/27 04:25:52;;;;;;;;;;;;;;;14.13;98.88;102082.03;4995664;28;19921;-72
2022/10/27 04:28:18;;;;;;;;;;;;;;;14.12;98.76;102083.81;5012433;28;20267;-73
2022/10/27 04:30:44;;;;;;;;;;;;;;;14.13;98.85;102079.38;4998242;28;19993;-73
2022/10/27 04:33:09;;;;;;;;;;;;;;;14.12;98.87;102082.94;5013274;28;19910;-73
2022/10/27 04:35:34;;;;;;;;;;;;;;;14.12;98.90;102086.44;5012973;28;19948;-72
2022/10/27 04:37:59;;;;;;;;;;;;;;;14.12;98.82;102080.31;5013428;28;19917;-73
2022/10/27 04:40:25;;;;;;;;;;;;;;;14.10;99.03;102076.84;4996654;28;20104;-72
2022/10/27 04:42:50;;;;;;;;;;;;;;;14.11;99.00;102082.06;4997981;28;20133;-73
2022/10/27 04:45:15;;;;;;;;;;;;;;;14.09;98.91;102076.00;4997585;28;19917;-73
2022/10/27 04:47:41;;;;;;;;;;;;;;;14.09;98.88;102073.38;4980864;28;19916;-72
2022/10/27 04:50:07;;;;;;;;;;;;;;;14.09;98.98;102076.00;4998352;28;19964;-73
2022/10/27 04:52:32;;;;;;;;;;;;;;;14.09;98.84;102070.72;4997322;28;19909;-73
2022/10/27 04:54:57;;;;;;;;;;;;;;;14.08;99.02;102074.31;4996714;28;19924;-73
2022/10/27 04:57:23;;;;;;;;;;;;;;;14.08;99.09;102078.69;4997389;28;20124;-73
2022/10/27 04:59:48;;;;;;;;;;;;;;;14.08;99.20;102073.41;4996645;28;19924;-73
2022/10/27 05:02:13;;;;;;;;;;;;;;;14.08;98.94;102062.88;4997427;28;19917;-73
2022/10/27 05:04:38;;;;;;;;;;;;;;;14.07;99.00;102063.81;4997849;28;19985;-73
2022/10/27 05:07:04;;;;;;;;;;;;;;;14.07;98.87;102064.66;4996702;28;20116;-73
2022/10/27 05:09:29;;;;;;;;;;;;;;;14.06;98.95;102068.22;4995980;28;20187;-73
2022/10/27 05:11:54;;;;;;;;;;;;;;;14.06;98.92;102062.97;4997364;28;20228;-73
2022/10/27 05:14:19;;;;;;;;;;;;;;;14.06;98.98;102060.31;5012421;28;19921;-72
2022/10/27 05:16:45;;;;;;;;;;;;;;;14.07;98.97;102058.53;4996761;28;19910;-73
2022/10/27 05:19:10;;;;;;;;;;;;;;;14.06;98.70;102056.81;5013122;28;19924;-73
2022/10/27 05:21:35;;;;;;;;;;;;;;;14.05;98.89;102055.97;4996233;28;19951;-73
2022/10/27 05:24:01;;;;;;;;;;;;;;;14.05;98.94;102053.31;4996437;28;19948;-73
2022/10/27 05:26:29;;;;;;;;;;;;;;;14.05;98.84;102052.47;4997161;28;20203;-72
2022/10/27 05:28:54;;;;;;;;;;;;;;;14.05;98.88;102053.31;4997485;28;19918;-73
2022/10/27 05:31:20;;;;;;;;;;;;;;;14.05;98.85;102047.22;4979336;28;19972;-73
2022/10/27 05:33:45;;;;;;;;;;;;;;;14.05;98.95;102055.09;4996846;28;19948;-73
2022/10/27 05:36:10;;;;;;;;;;;;;;;14.04;99.05;102048.09;4993948;28;20148;-73
2022/10/27 05:38:38;;;;;;;;;;;;;;;14.04;98.79;102048.97;4991407;28;20216;-73
2022/10/27 05:41:04;;;;;;;;;;;;;;;14.02;99.01;102043.78;4977823;28;20163;-73
2022/10/27 05:43:30;;;;;;;;;;;;;;;14.03;98.92;102052.53;4994471;28;19921;-73
2022/10/27 05:45:58;;;;;;;;;;;;;;;14.02;98.83;102041.13;4994965;28;19909;-73
2022/10/27 05:48:23;;;;;;;;;;;;;;;14.02;98.96;102043.78;4977041;28;19922;-72
2022/10/27 05:50:52;;;;;;;;;;;;;;;14.02;99.00;102045.53;4977462;28;19929;-73
2022/10/27 05:53:18;;;;;;;;;;;;;;;14.01;99.09;102041.19;4977011;28;19941;-73
2022/10/27 05:55:43;;;;;;;;;;;;;;;14.02;98.95;102037.63;5005570;28;19922;-73
2022/10/27 05:58:09;;;;;;;;;;;;;;;14.01;99.03;102034.13;5010421;28;19977;-73
2022/10/27 06:00:36;;;;;;;;;;;;;;;14.01;98.89;102028.03;4978736;28;19932;-73
2022/10/27 06:03:02;;;;;;;;;;;;;;;14.01;98.82;102023.59;4981791;28;20291;-73
2022/10/27 06:05:28;;;;;;;;;;;;;;;14.00;99.05;102021.03;4999498;28;19924;-73
2022/10/27 06:07:57;;;;;;;;;;;;;;;14.00;99.13;102021.03;5000230;28;19918;-73
2022/10/27 06:10:23;;;;;;;;;;;;;;;13.99;99.05;102028.06;4991511;28;19922;-73
2022/10/27 06:12:48;;;;;;;;;;;;;;;13.98;99.13;102018.44;4982043;28;19960;-73
2022/10/27 06:15:14;;;;;;;;;;;;;;;13.98;98.96;102015.81;4985866;28;19968;-73
2022/10/27 06:17:39;;;;;;;;;;;;;;;13.98;98.79;102021.06;4989618;28;19922;-73
2022/10/27 06:20:04;;;;;;;;;;;;;;;13.98;98.76;102025.50;4986492;28;19983;-73
2022/10/27 06:22:30;;;;;;;;;;;;;;;13.97;99.05;102018.50;4996942;28;19909;-73
2022/10/27 06:24:55;;;;;;;;;;;;;;;13.96;98.99;102008.88;4992952;28;19917;-73
2022/10/27 06:27:20;;;;;;;;;;;;;;;13.96;98.86;102009.75;4983629;28;19910;-73
2022/10/27 06:29:46;;;;;;;;;;;;;;;13.96;98.63;102007.09;4980856;28;20174;-72
2022/10/27 06:32:11;;;;;;;;;;;;;;;13.96;98.66;102007.09;5010505;28;19929;-72
2022/10/27 06:34:37;;;;;;;;;;;;;;;13.95;98.76;101994.88;4980221;28;20180;-73
2022/10/27 06:37:02;;;;;;;;;;;;;;;13.94;98.68;101994.91;4988685;28;19910;-73
2022/10/27 06:39:28;;;;;;;;;;;;;;;13.94;98.55;101995.78;4991116;28;20235;-73
2022/10/27 06:41:54;;;;;;;;;;;;;;;13.93;98.61;101991.41;4985053;28;19944;-73
2022/10/27 06:44:19;;;;;;;;;;;;;;;13.92;98.70;101997.59;4984379;28;19917;-73
2022/10/27 06:46:45;;;;;;;;;;;;;;;13.92;98.68;101997.59;4967153;28;19933;-74
2022/10/27 06:49:10;;;;;;;;;;;;;;;13.91;98.49;101989.75;5003954;28;20209;-73
2022/10/27 06:51:35;;;;;;;;;;;;;;;13.91;98.54;101989.75;4993687;28;19944;-73
2022/10/27 06:54:00;;;;;;;;;;;;;;;13.90;98.14;101994.16;4987706;28;19949;-73
2022/10/27 06:56:26;;;;;;;;;;;;;;;13.89;98.47;101995.06;4981389;28;19914;-73
2022/10/27 06:58:51;;;;;;;;;;;;;;;13.89;98.33;101999.50;4999597;28;19917;-73
2022/10/27 07:01:16;;;;;;;;;;;;;;;13.88;98.35;102000.38;4989687;28;19922;-73
2022/10/27 07:03:42;;;;;;;;;;;;;;;13.88;98.28;102003.03;4974159;28;20110;-73
2022/10/27 07:06:07;;;;;;;;;;;;;;;13.87;98.33;101993.41;4996773;28;20240;-73
2022/10/27 07:08:32;;;;;;;;;;;;;;;13.87;98.36;101999.53;4995966;28;19917;-73
2022/10/27 07:10:57;;;;;;;;;;;;;;;13.87;98.22;101996.91;4975503;28;19965;-73
2022/10/27 07:13:23;;;;;;;;;;;;;;;13.86;98.13;101994.31;4951693;29;20401;-73
2022/10/27 07:15:48;;;;;;;;;;;;;;;13.85;98.08;101990.84;4967901;28;19949;-73
2022/10/27 07:18:13;;;;;;;;;;;;;;;13.85;97.88;101990.00;4977335;28;20232;-73
2022/10/27 07:20:39;;;;;;;;;;;;;;;13.83;97.76;101990.88;4977776;28;19910;-73
2022/10/27 07:23:05;;;;;;;;;;;;;;;13.83;97.90;101990.88;4960265;28;19917;-73
2022/10/27 07:25:31;;;;;;;;;;;;;;;13.81;97.95;101998.00;4951405;28;20323;-73
2022/10/27 07:27:57;;;;;;;;;;;;;;;13.82;97.68;102001.47;4976814;28;19922;-73
2022/10/27 07:30:24;;;;;;;;;;;;;;;13.82;98.03;101997.09;4979803;28;19932;-73
2022/10/27 07:32:51;;;;;;;;;;;;;;;13.82;97.92;102004.09;4969561;28;19926;-73
2022/10/27 07:35:16;;;;;;;;;;;;;;;13.81;98.00;101999.78;4975867;28;19922;-72
2022/10/27 07:37:43;;;;;;;;;;;;;;;13.81;97.98;101999.78;4963066;28;19949;-73
2022/10/27 07:40:08;;;;;;;;;;;;;;;13.80;98.24;101998.88;4976321;28;19944;-73
2022/10/27 07:42:42;;;;;;;;;;;;;;;13.81;98.22;101989.25;4967439;28;19942;-72
2022/10/27 07:45:08;;;;;;;;;;;;;;;13.79;98.13;101988.44;4973431;28;20180;-73
2022/10/27 07:47:33;;;;;;;;;;;;;;;13.80;97.95;101991.00;4974888;28;19965;-73
2022/10/27 07:49:58;;;;;;;;;;;;;;;13.79;97.74;101988.44;4974665;28;19965;-73
2022/10/27 07:52:23;;;;;;;;;;;;;;;13.80;98.00;101995.41;4975365;28;19970;-73
2022/10/27 07:54:49;;;;;;;;;;;;;;;13.80;97.83;101993.63;4965469;28;19922;-73
2022/10/27 07:57:14;;;;;;;;;;;;;;;13.80;97.87;101984.88;4971631;28;19926;-73
2022/10/27 07:59:39;;;;;;;;;;;;;;;13.80;97.46;101980.47;4978235;28;19922;-73
2022/10/27 08:02:04;;;;;;;;;;;;;;;13.79;97.49;101985.81;4971593;28;20114;-73
2022/10/27 08:04:30;;;;;;;;;;;;;;;13.80;97.42;101983.09;4971096;28;20130;-75
2022/10/27 08:06:55;;;;;;;;;;;;;;;13.80;97.48;101980.47;4964673;28;19949;-73
2022/10/27 08:09:21;;;;;;;;;;;;;;;13.81;97.16;101982.19;4985021;28;19938;-73
2022/10/27 08:11:46;;;;;;;;;;;;;;;13.81;97.21;101982.19;4982248;28;20229;-73
2022/10/27 08:14:12;;;;;;;;;;;;;;;13.82;96.77;101983.91;4958942;28;19922;-72
2022/10/27 08:16:37;;;;;;;;;;;;;;;13.83;96.98;101984.78;4960025;28;19945;-72
2022/10/27 08:19:02;;;;;;;;;;;;;;;13.83;96.71;101977.72;4968136;28;20233;-72
2022/10/27 08:21:28;;;;;;;;;;;;;;;13.84;96.48;101981.22;4981632;28;19922;-74
2022/10/27 08:23:53;;;;;;;;;;;;;;;13.85;96.26;101982.94;4967007;28;19922;-72
2022/10/27 08:26:18;;;;;;;;;;;;;;;13.86;96.44;101970.63;4957884;28;19929;-75
2022/10/27 08:28:43;;;;;;;;;;;;;;;13.88;96.42;101974.94;4975298;28;19953;-74
2022/10/27 08:31:09;;;;;;;;;;;;;;;13.88;96.63;101971.44;4966553;28;20247;-74
2022/10/27 08:33:34;;;;;;;;;;;;;;;13.89;96.06;101968.75;4955319;28;19989;-72
2022/10/27 08:36:00;;;;;;;;;;;;;;;13.90;95.95;101965.19;4977195;28;20106;-74
2022/10/27 08:38:25;;;;;;;;;;;;;;;13.91;95.98;101958.16;4971366;28;19961;-74
2022/10/27 08:41:09;;;;;;;;;;;;;;;13.93;96.03;101945.78;4991154;28;19922;-74
2022/10/27 08:44:10;;;;;;;;;;;;;;;13.94;95.78;101942.25;4976877;28;19949;-74
2022/10/27 08:46:38;;;;;;;;;;;;;;;13.95;95.36;101952.72;4943204;29;19929;-74
2022/10/27 08:49:33;;;;;;;;;;;;;;;13.97;95.31;101957.91;4954908;28;19918;-74
2022/10/27 08:52:01;;;;;;;;;;;;;;;13.96;95.33;101943.91;4974436;28;19921;-73
2022/10/27 08:54:27;;;;;;;;;;;;;;;13.98;94.86;101935.94;4979742;28;20309;-74
2022/10/27 08:56:54;;;;;;;;;;;;;;;13.99;94.92;101942.94;4967979;28;19923;-74
2022/10/27 08:59:21;;;;;;;;;;;;;;;14.01;95.06;101946.38;4974017;28;19993;-74
2022/10/27 09:02:19;;;;;;;;;;;;;;;14.02;95.20;101950.72;4978163;28;20325;-72
2022/10/27 09:04:52;;;;;;;;;;;;;;;14.03;94.76;101944.53;4925502;28;19918;-72
2022/10/27 09:07:24;;;;;;;;;;;;;;;14.05;94.60;101949.75;4987192;28;19922;-74
2022/10/27 09:09:57;;;;;;;;;;;;;;;14.06;94.41;101949.69;4977546;28;20213;-74
2022/10/27 09:12:34;;;;;;;;;;;;;;;14.08;94.67;101946.97;4988284;28;19922;-73
2022/10/27 09:15:22;;;;;;;;;;;;;;;14.09;94.63;101940.81;4989655;28;19918;-75
2022/10/27 09:17:51;;;;;;;;;;;;;;;14.11;94.48;101938.97;4993263;28;20227;-73
2022/10/27 09:20:20;;;;;;;;;;;;;;;14.11;94.29;101944.25;4993144;28;19945;-74
2022/10/27 09:22:48;;;;;;;;;;;;;;;14.13;94.84;101939.78;4993225;28;19922;-74
2022/10/27 09:25:18;;;;;;;;;;;;;;;14.14;94.60;101937.09;4992755;28;19980;-74
2022/10/27 09:27:44;;;;;;;;;;;;;;;14.16;94.81;101929.97;4992830;28;19917;-74
2022/10/27 09:30:12;;;;;;;;;;;;;;;14.18;94.77;101924.66;4994739;28;19967;-75
2022/10/27 09:32:39;;;;;;;;;;;;;;;14.21;94.60;101924.53;4987572;28;19917;-74
2022/10/27 09:35:11;;;;;;;;;;;;;;;14.24;94.83;101929.66;4995782;28;19987;-74
2022/10/27 09:37:41;;;;;;;;;;;;;;;14.27;94.79;101918.16;4996391;28;19991;-72
2022/10/27 09:40:10;;;;;;;;;;;;;;;14.30;94.76;101916.28;4993886;28;19917;-74
2022/10/27 09:42:36;;;;;;;;;;;;;;;14.33;94.40;101902.97;4996963;28;20201;-74
2022/10/27 09:45:02;;;;;;;;;;;;;;;14.36;93.99;101902.84;4997577;28;19924;-74
2022/10/27 09:47:29;;;;;;;;;;;;;;;14.38;94.16;101906.28;4996399;28;20224;-74
2022/10/27 09:49:55;;;;;;;;;;;;;;;14.40;93.94;101898.31;4997127;28;19925;-72
2022/10/27 09:52:30;;;;;;;;;;;;;;;14.43;93.66;101898.19;4992382;28;19981;-75
2022/10/27 09:54:56;;;;;;;;;;;;;;;14.46;93.56;101891.94;4985409;28;19989;-72
2022/10/27 09:57:31;;;;;;;;;;;;;;;14.49;93.48;101892.69;4986391;28;20228;-74
2022/10/27 10:00:05;;;;;;;;;;;;;;;14.52;93.95;101887.28;4990341;28;19924;-75
2022/10/27 10:02:39;;;;;;;;;;;;;;;14.55;94.19;101883.66;4988509;28;20511;-74
2022/10/27 10:05:16;;;;;;;;;;;;;;;14.57;94.05;101882.72;4992565;28;19956;-74
2022/10/27 10:07:43;;;;;;;;;;;;;;;14.59;94.37;101890.56;4992421;28;19917;-74
2022/10/27 10:10:11;;;;;;;;;;;;;;;14.61;94.52;101887.84;4964874;28;20005;-75
2022/10/27 10:12:37;;;;;;;;;;;;;;;14.63;94.30;101880.75;4996283;28;19921;-75
2022/10/27 10:15:11;;;;;;;;;;;;;;;14.66;94.49;101885.88;4989405;28;20048;-75
2022/10/27 10:17:49;;;;;;;;;;;;;;;14.69;94.84;101885.78;4988454;28;19956;-75
2022/10/27 10:20:33;;;;;;;;;;;;;;;14.71;94.58;101886.56;4986727;28;19917;-75
2022/10/27 10:22:59;;;;;;;;;;;;;;;14.72;94.30;101883.03;5003704;28;20234;-75
2022/10/27 10:25:32;;;;;;;;;;;;;;;14.74;94.07;101882.03;4990985;28;20243;-75
2022/10/27 10:28:02;;;;;;;;;;;;;;;14.77;94.26;101888.94;4985565;28;19918;-76
2022/10/27 10:30:31;;;;;;;;;;;;;;;14.78;94.45;101890.66;4971989;28;19925;-76
2022/10/27 10:32:56;;;;;;;;;;;;;;;14.80;94.51;101890.59;4992854;28;19914;-75
2022/10/27 10:35:41;;;;;;;;;;;;;;;14.82;94.50;101881.69;4993118;28;19949;-75
2022/10/27 10:38:25;;;;;;;;;;;;;;;14.84;94.38;101881.63;4997285;28;19914;-75
2022/10/27 10:40:59;;;;;;;;;;;;;;;14.87;94.33;101878.88;4998295;28;20189;-75
2022/10/27 10:43:24;;;;;;;;;;;;;;;14.89;94.74;101882.31;4997708;28;19917;-75
2022/10/27 10:45:53;;;;;;;;;;;;;;;14.92;95.25;101882.19;5013409;28;19922;-75
2022/10/27 10:48:23;;;;;;;;;;;;;;;14.94;95.25;101875.91;4997755;28;19920;-75
2022/10/27 10:50:49;;;;;;;;;;;;;;;14.98;95.06;101879.28;4998794;28;19941;-75
2022/10/27 10:53:20;;;;;;;;;;;;;;;15.00;95.39;101877.41;4993608;28;19917;-75
2022/10/27 10:55:46;;;;;;;;;;;;;;;15.04;95.41;101880.78;4999119;28;19921;-75
2022/10/27 10:58:14;;;;;;;;;;;;;;;15.05;95.17;101879.88;5011950;28;20219;-75
2022/10/27 11:00:50;;;;;;;;;;;;;;;15.06;95.13;101869.25;4998460;28;19924;-75
2022/10/27 11:03:18;;;;;;;;;;;;;;;15.08;95.21;101875.31;4980945;28;20133;-75
2022/10/27 11:05:43;;;;;;;;;;;;;;;15.08;95.21;101872.69;4998635;28;20152;-75
2022/10/27 11:08:19;;;;;;;;;;;;;;;15.09;95.35;101877.03;4999100;28;19905;-75
2022/10/27 11:10:45;;;;;;;;;;;;;;;15.10;95.16;101867.34;5012241;28;20121;-75
2022/10/27 11:13:15;;;;;;;;;;;;;;;15.10;94.86;101862.91;4991314;28;19953;-75
2022/10/27 11:15:59;;;;;;;;;;;;;;;15.12;95.08;101863.72;4997659;28;19913;-75
2022/10/27 11:18:29;;;;;;;;;;;;;;;15.13;95.08;101854.00;4997269;28;20119;-73
2022/10/27 11:21:13;;;;;;;;;;;;;;;15.14;95.18;101853.09;4990837;28;19905;-73
2022/10/27 11:23:43;;;;;;;;;;;;;;;15.14;95.08;101843.38;4996226;28;20231;-73
2022/10/27 11:26:09;;;;;;;;;;;;;;;15.15;95.04;101855.66;4992952;28;19972;-75
2022/10/27 11:28:37;;;;;;;;;;;;;;;15.17;94.87;101858.22;5010497;28;20218;-75
2022/10/27 11:31:06;;;;;;;;;;;;;;;15.17;94.97;101874.03;4998242;28;20165;-75
2022/10/27 11:33:48;;;;;;;;;;;;;;;15.18;95.22;101864.38;4997172;28;19914;-75
2022/10/27 11:36:19;;;;;;;;;;;;;;;15.19;95.06;101858.16;4997232;28;20223;-75
2022/10/27 11:38:53;;;;;;;;;;;;;;;15.21;95.38;101835.19;4996995;28;19921;-75
2022/10/27 11:41:24;;;;;;;;;;;;;;;15.22;95.62;101816.66;4982945;28;19914;-73
2022/10/27 11:44:08;;;;;;;;;;;;;;;15.24;96.02;101821.88;4994155;28;19917;-73
2022/10/27 11:46:36;;;;;;;;;;;;;;;15.26;95.80;101812.09;4985203;28;20023;-73
2022/10/27 11:49:08;;;;;;;;;;;;;;;15.28;95.86;101813.75;4994365;28;20144;-73
2022/10/27 11:51:42;;;;;;;;;;;;;;;15.30;95.89;101811.91;4995851;28;20213;-73
2022/10/27 11:54:07;;;;;;;;;;;;;;;15.32;96.08;101815.34;4996608;28;19960;-73
2022/10/27 11:56:44;;;;;;;;;;;;;;;15.33;96.30;101817.06;4985410;28;19921;-74
2022/10/27 11:59:28;;;;;;;;;;;;;;;15.35;96.48;101817.84;4996346;28;19913;-73
2022/10/27 12:02:20;;;;;;;;;;;;;;;15.39;96.30;101817.69;4996711;28;20090;-73
2022/10/27 12:04:54;;;;;;;;;;;;;;;15.40;96.49;101816.78;4996241;28;20004;-73
2022/10/27 12:07:28;;;;;;;;;;;;;;;15.41;96.45;101800.88;4984148;28;20210;-73
2022/10/27 12:10:16;;;;;;;;;;;;;;;15.44;96.60;101807.78;4995790;28;19925;-73
2022/10/27 12:12:46;;;;;;;;;;;;;;;15.46;96.64;101798.00;4974920;28;19922;-73
2022/10/27 12:15:14;;;;;;;;;;;;;;;15.47;96.57;101795.28;4975969;28;20184;-73
2022/10/27 12:17:47;;;;;;;;;;;;;;;15.49;96.67;101790.78;4976442;28;19917;-73
2022/10/27 12:20:16;;;;;;;;;;;;;;;15.52;96.75;101784.53;4976725;28;20032;-73
2022/10/27 12:22:51;;;;;;;;;;;;;;;15.53;96.29;101781.81;4976755;28;19957;-73
2022/10/27 12:25:34;;;;;;;;;;;;;;;15.57;96.66;101785.16;4976262;28;19913;-73
2022/10/27 12:28:02;;;;;;;;;;;;;;;15.60;96.93;101787.66;4976607;28;19948;-73
2022/10/27 12:30:27;;;;;;;;;;;;;;;15.62;96.99;101791.06;4975918;28;19957;-73
2022/10/27 12:33:11;;;;;;;;;;;;;;;15.65;97.04;101790.94;4976509;28;19922;-73
2022/10/27 12:35:39;;;;;;;;;;;;;;;15.69;97.60;101781.09;4976013;28;20008;-74
2022/10/27 12:38:07;;;;;;;;;;;;;;;15.70;97.63;101769.63;4991050;28;19918;-74
2022/10/27 12:40:45;;;;;;;;;;;;;;;15.73;97.50;101764.16;4975706;28;19940;-74
2022/10/27 12:43:10;;;;;;;;;;;;;;;15.76;97.07;101753.50;4976242;28;20231;-73
2022/10/27 12:45:38;;;;;;;;;;;;;;;15.80;96.93;101746.28;4975102;28;19985;-73